Date,TemperatureHighF,TemperatureAvgF,TemperatureLowF,DewpointHighF,DewpointAvgF,DewpointLowF,HumidityHigh,HumidityAvg,HumidityLow,PressureMaxIn,PressureMinIn,WindSpeedMaxMPH,WindSpeedAvgMPH,GustSpeedMaxMPH,PrecipitationSumIn
2014-2-1,36.0,27.1,18.0,30.0,19.7,-99.9,92,77,54,0.00,40.00,6,2,15,0.01
2014-2-2,37.0,32.1,27.0,33.0,27.2,18.0,94,83,67,0.00,40.00,3,1,12,0.00
2014-2-3,27.0,18.7,8.0,20.0,9.1,3.0,82,67,44,0.00,40.00,4,2,13,0.00
2014-2-4,28.0,15.6,7.0,11.0,7.0,2.0,82,69,41,0.00,40.00,5,1,15,0.00
2014-2-5,18.0,15.8,11.0,13.0,10.5,5.0,83,80,72,0.00,40.00,5,2,12,0.00
2014-2-6,19.0,8.5,-2.0,6.0,1.0,-8.0,80,72,54,0.00,40.00,3,1,9,0.00
2014-2-7,22.0,15.2,8.0,9.0,4.2,2.0,81,62,45,0.00,40.00,7,4,20,0.00
2014-2-8,25.0,15.9,10.0,4.0,2.8,0.0,72,56,40,0.00,40.00,7,3,17,0.00
2014-2-9,24.0,15.8,10.0,11.0,6.9,3.0,82,69,43,0.00,40.00,4,1,11,0.01
2014-2-10,24.0,12.3,4.0,9.0,3.2,-2.0,82,68,45,0.00,40.00,5,1,13,0.01
2014-2-11,19.0,5.6,-8.0,0.0,-6.9,-15.0,73,57,39,0.00,40.00,4,1,13,0.00
2014-2-12,21.0,-2.7,-12.0,-1.0,-12.7,-20.0,71,63,37,0.00,40.00,2,1,7,0.00
2014-2-13,26.0,19.0,-1.0,18.0,5.0,-99.9,86,66,39,0.00,40.00,4,2,13,0.00
2014-2-14,29.0,24.7,21.0,20.0,16.8,14.0,85,72,65,0.00,40.00,6,4,23,0.00
2014-2-15,34.0,24.8,17.0,25.0,16.3,-99.9,86,74,58,0.00,40.00,4,1,11,0.00
2014-2-16,25.0,15.2,8.0,8.0,-1.8,-9.0,68,48,27,0.00,40.00,6,3,21,0.00
2014-2-17,21.0,5.4,-5.0,-6.0,-10.3,-13.0,66,49,29,0.00,40.00,5,2,14,0.01
2014-2-18,31.0,21.1,-7.0,22.0,13.4,-15.0,88,72,53,0.00,40.00,7,2,19,0.01
2014-2-19,37.0,26.9,13.0,31.0,20.0,9.0,86,75,62,0.00,40.00,6,2,14,0.00
2014-2-20,45.0,35.2,29.0,32.0,25.7,19.0,93,70,41,0.00,40.00,5,2,18,0.00
2014-2-21,40.0,34.7,29.0,37.0,32.0,27.0,94,91,81,0.00,40.00,12,2,26,0.00
2014-2-22,46.0,38.1,32.0,30.0,16.5,-99.9,93,45,22,0.00,40.00,13,6,35,0.00
2014-2-23,43.0,34.7,28.0,19.0,13.2,10.0,54,42,25,0.00,40.00,9,4,23,0.00
2014-2-24,27.0,20.8,16.0,12.0,4.8,1.0,65,50,33,0.00,40.00,7,3,22,0.00
2014-2-25,21.0,13.4,2.0,7.0,1.1,-4.0,75,58,42,0.00,40.00,5,2,17,0.00
2014-2-26,20.0,8.9,1.0,4.0,-6.9,-13.0,77,53,24,0.00,40.00,9,3,27,0.00
2014-2-27,23.0,11.5,-3.0,7.0,-3.4,-11.0,68,52,29,0.00,40.00,10,3,23,0.00
2014-2-28,19.0,6.0,-3.0,-7.0,-11.7,-19.0,61,46,20,0.00,40.00,6,3,24,0.01